Terminal Aerodrome Forecast
Issued by NWS Twin Cities, MN

Home | Current Version | Previous Version | Text Only | Print | Product List | Glossary Off
Versions: 1 2 3 4 5 6 7 8 9 10 11 12 13 14 15 16 17 18 19 20 21 22 23 24 25 26 27 28 29 30 31 32 33

293
FTUS43 KMPX 022338
TAFMSP
TAF
KMSP 022338Z 0300/0406 28004KT P6SM OVC022
     FM030400 27004KT P6SM OVC017
     FM031000 22003KT P6SM OVC022
     FM031800 15006KT P6SM BKN035
     FM040200 14008KT P6SM OVC030=

USA.gov is the U.S. government's official web portal to all federal, state and local government web resources and services.